Time;durP1;ratioP1;P1;durP2;ratioP2;P2;SDS_P1;SDS_P2;PMS_P1;PMS_P2;Temp;Humidity;BMP_temperature;BMP_pressure;BME280_temperature;BME280_humidity;BME280_pressure;Samples;Min_cycle;Max_cycle;Signal;HPM_P1;HPM_P2
2021/11/17 15:28:23;;;;;;;25.65;16.15;;;;;;;;;;5099401;27;80712;-19
2021/11/17 15:30:53;;;;;;;21.73;16.85;;;;;;;;;;5087100;27;83147;-19
2021/11/17 15:33:20;;;;;;;19.85;14.43;;;;;;;;;;5077641;27;84216;-20
2021/11/17 15:35:49;;;;;;;20.75;16.60;;;;;;;;;;5086284;27;83029;-18
2021/11/17 15:38:16;;;;;;;18.35;16.13;;;;;;;;;;5073627;27;84181;-19
2021/11/17 15:40:47;;;;;;;19.70;14.38;;;;;;;;;;5079225;27;84445;-21
2021/11/17 15:43:15;;;;;;;18.50;15.60;;;;;;;;;;5080494;27;83259;-22
2021/11/17 15:45:41;;;;;;;18.83;15.10;;;;;;;;;;5071929;27;85209;-23
2021/11/17 15:48:08;;;;;;;20.77;15.10;;;;;;;;;;5077839;27;83416;-19
2021/11/17 15:50:40;;;;;;;21.27;14.73;;;;;;;;;;5078090;27;85084;-21
2021/11/17 15:53:07;;;;;;;23.65;17.27;;;;;;;;;;5085704;27;83333;-22
2021/11/17 15:55:34;;;;;;;17.33;15.02;;;;;;;;;;5078797;27;83138;-18
2021/11/17 15:58:01;;;;;;;20.10;16.27;;;;;;;;;;5064124;27;84170;-18
2021/11/17 16:00:29;;;;;;;17.40;14.57;;;;;;;;;;5084445;27;83452;-21
2021/11/17 16:02:55;;;;;;;19.25;14.60;;;;;;;;;;5090505;27;84079;-18
2021/11/17 16:05:22;;;;;;;19.02;13.90;;;;;;;;;;5090307;27;84008;-21
2021/11/17 16:07:49;;;;;;;18.60;15.18;;;;;;;;;;5093556;27;84278;-20
2021/11/17 16:10:16;;;;;;;20.40;14.80;;;;;;;;;;5096971;27;83942;-20
2021/11/17 16:12:43;;;;;;;19.70;14.73;;;;;;;;;;5091783;27;84351;-19
2021/11/17 16:15:10;;;;;;;21.60;15.48;;;;;;;;;;5084469;27;82961;-18
2021/11/17 16:17:37;;;;;;;14.68;13.13;;;;;;;;;;5087472;27;84049;-18
2021/11/17 16:20:05;;;;;;;18.90;13.63;;;;;;;;;;5084022;27;84249;-20
2021/11/17 16:22:35;;;;;;;22.02;14.07;;;;;;;;;;5084524;27;83133;-23
2021/11/17 16:27:49;;;;;;;14.95;13.13;;;;;;;;;;5080901;27;84023;-24
2021/11/17 16:30:18;;;;;;;16.35;13.30;;;;;;;;;;5090473;27;83017;-22
2021/11/17 16:32:45;;;;;;;15.45;12.77;;;;;;;;;;5093310;27;85081;-22
2021/11/17 16:35:15;;;;;;;15.02;12.90;;;;;;;;;;5085564;27;83115;-22
2021/11/17 16:37:42;;;;;;;16.58;12.90;;;;;;;;;;5085627;27;83106;-20
2021/11/17 16:40:10;;;;;;;18.52;16.15;;;;;;;;;;5071212;27;84949;-25
2021/11/17 16:42:37;;;;;;;16.52;13.90;;;;;;;;;;5071643;27;83178;-19
2021/11/17 16:45:04;;;;;;;18.20;12.52;;;;;;;;;;5073446;27;85131;-20
2021/11/17 16:47:31;;;;;;;13.57;11.82;;;;;;;;;;5071130;27;84503;-22
2021/11/17 16:49:57;;;;;;;14.88;12.45;;;;;;;;;;5070103;27;83479;-20
2021/11/17 16:52:25;;;;;;;19.98;12.30;;;;;;;;;;5070925;27;84073;-18
2021/11/17 16:54:56;;;;;;;16.25;13.13;;;;;;;;;;5082481;27;85125;-23
2021/11/17 16:57:24;;;;;;;16.20;13.45;;;;;;;;;;5078528;27;84314;-21
2021/11/17 16:59:51;;;;;;;15.55;12.52;;;;;;;;;;5076885;27;84309;-24
2021/11/17 17:02:18;;;;;;;17.55;13.05;;;;;;;;;;5080399;27;83119;-19
2021/11/17 17:04:45;;;;;;;13.70;11.60;;;;;;;;;;5075353;27;85028;-23
2021/11/17 17:07:15;;;;;;;14.45;12.05;;;;;;;;;;5061605;27;84016;-25
2021/11/17 17:09:42;;;;;;;14.73;12.88;;;;;;;;;;5071306;27;83223;-22
2021/11/17 17:12:10;;;;;;;15.00;11.73;;;;;;;;;;5071183;27;85097;-25
2021/11/17 17:14:37;;;;;;;14.35;11.77;;;;;;;;;;5066015;27;84412;-21
2021/11/17 17:17:03;;;;;;;15.57;10.95;;;;;;;;;;5077789;27;83220;-23
2021/11/17 17:19:30;;;;;;;16.27;11.50;;;;;;;;;;5068662;27;83810;-24
2021/11/17 17:21:58;;;;;;;15.23;12.55;;;;;;;;;;5058855;27;83327;-23
2021/11/17 17:24:25;;;;;;;15.40;12.57;;;;;;;;;;5047666;27;85223;-23
2021/11/17 17:26:51;;;;;;;12.15;10.55;;;;;;;;;;5070965;27;84412;-24
2021/11/17 17:29:24;;;;;;;17.55;11.90;;;;;;;;;;5066341;27;83505;-23
2021/11/17 17:31:51;;;;;;;13.75;11.68;;;;;;;;;;5064182;27;85593;-27
2021/11/17 17:34:18;;;;;;;13.13;10.85;;;;;;;;;;5065523;27;84371;-23
2021/11/17 17:36:45;;;;;;;13.90;11.80;;;;;;;;;;5070276;27;83647;-21
2021/11/17 17:39:11;;;;;;;15.85;11.25;;;;;;;;;;5071652;27;83684;-23
2021/11/17 17:41:38;;;;;;;12.40;10.55;;;;;;;;;;5065896;27;84404;-23
2021/11/17 17:44:05;;;;;;;19.17;10.35;;;;;;;;;;5069478;27;85103;-23
2021/11/17 17:46:32;;;;;;;12.63;10.48;;;;;;;;;;5072534;27;83223;-23
2021/11/17 17:49:01;;;;;;;12.02;9.93;;;;;;;;;;5070924;27;85267;-22
2021/11/17 17:51:28;;;;;;;13.23;9.80;;;;;;;;;;5075909;27;84195;-22
2021/11/17 17:53:55;;;;;;;15.57;11.77;;;;;;;;;;5072900;27;81906;-23
2021/11/17 17:56:21;;;;;;;16.25;11.13;;;;;;;;;;5063463;27;83311;-24
2021/11/17 17:58:48;;;;;;;13.93;10.98;;;;;;;;;;5077391;27;84895;-17
2021/11/17 18:01:17;;;;;;;14.48;9.80;;;;;;;;;;5069232;27;83277;-22
2021/11/17 18:03:45;;;;;;;12.00;10.45;;;;;;;;;;5067163;27;84410;-17
2021/11/17 18:06:14;;;;;;;12.25;9.25;;;;;;;;;;5062253;27;83760;-23
2021/11/17 18:08:41;;;;;;;14.98;11.20;;;;;;;;;;5073534;27;82040;-24
2021/11/17 18:11:09;;;;;;;19.02;11.05;;;;;;;;;;5077189;27;83327;-20
2021/11/17 18:13:36;;;;;;;11.23;8.65;;;;;;;;;;5078034;27;83433;-23
2021/11/17 18:16:03;;;;;;;12.45;10.73;;;;;;;;;;5075409;27;81842;-18
2021/11/17 18:18:31;;;;;;;10.98;9.75;;;;;;;;;;5075544;27;83495;-24
2021/11/17 18:21:00;;;;;;;13.25;10.80;;;;;;;;;;5070205;27;81818;-24
2021/11/17 18:23:27;;;;;;;15.25;10.75;;;;;;;;;;5075121;27;83150;-20
2021/11/17 20:26:28;;;;;;;14.48;11.00;;;;;;;;;;5034698;28;80114;-15
2021/11/17 20:28:54;;;;;;;12.00;10.02;;;;;;;;;;5015138;27;83214;-15
2021/11/17 20:31:21;;;;;;;13.63;9.95;;;;;;;;;;5010279;28;84319;-15
2021/11/17 20:33:48;;;;;;;12.13;10.07;;;;;;;;;;5014996;28;82784;-14
2021/11/17 20:38:59;;;;;;;19.30;14.55;;;;;;;;;;4915917;28;80457;-64
2021/11/17 20:41:27;;;;;;;18.75;14.43;;;;;;;;;;4906980;28;83132;-64
2021/11/17 20:43:53;;;;;;;18.23;15.88;;;;;;;;;;4901195;28;83570;-63
2021/11/17 20:46:20;;;;;;;21.33;16.35;;;;;;;;;;4901159;28;83169;-63
2021/11/17 20:48:47;;;;;;;28.30;18.67;;;;;;;;;;4899836;28;85023;-65
2021/11/17 20:51:14;;;;;;;24.33;17.63;;;;;;;;;;4899159;28;84528;-64
2021/11/17 20:53:41;;;;;;;26.33;18.52;;;;;;;;;;4904951;28;83768;-59
2021/11/17 20:56:08;;;;;;;26.75;19.65;;;;;;;;;;4911425;28;85240;-58
2021/11/17 20:58:35;;;;;;;23.42;17.80;;;;;;;;;;4913575;28;83389;-64
2021/11/17 21:01:03;;;;;;;25.70;18.48;;;;;;;;;;4909587;28;84769;-62
2021/11/17 21:03:30;;;;;;;26.42;19.65;;;;;;;;;;4907797;28;84256;-61
2021/11/17 21:05:56;;;;;;;26.15;18.67;;;;;;;;;;4909338;28;83003;-61
2021/11/17 21:08:23;;;;;;;24.17;18.80;;;;;;;;;;4909968;28;84156;-62
2021/11/17 21:10:52;;;;;;;24.33;18.70;;;;;;;;;;4911116;28;84378;-64
2021/11/17 21:13:20;;;;;;;25.00;18.20;;;;;;;;;;4911639;28;83185;-60
2021/11/17 21:15:47;;;;;;;27.98;19.25;;;;;;;;;;4910199;28;83941;-61
2021/11/17 21:18:16;;;;;;;30.20;20.25;;;;;;;;;;4909933;28;84142;-64
2021/11/17 21:20:42;;;;;;;30.40;20.15;;;;;;;;;;4914173;28;83186;-61
2021/11/17 21:23:11;;;;;;;33.45;20.40;;;;;;;;;;4912226;28;84557;-61
2021/11/17 21:25:38;;;;;;;34.97;23.00;;;;;;;;;;4910484;28;83176;-61
2021/11/17 21:28:04;;;;;;;29.95;21.27;;;;;;;;;;4909941;28;85122;-61
2021/11/17 21:30:32;;;;;;;34.90;21.50;;;;;;;;;;4910946;28;84878;-62
2021/11/17 21:32:58;;;;;;;29.80;21.55;;;;;;;;;;4910820;28;83625;-62
2021/11/17 21:35:27;;;;;;;31.45;21.85;;;;;;;;;;4909888;28;85290;-63
2021/11/17 21:37:54;;;;;;;27.45;18.55;;;;;;;;;;4908685;28;84381;-60
2021/11/17 21:40:21;;;;;;;30.10;20.00;;;;;;;;;;4907244;28;83065;-60
2021/11/17 21:42:49;;;;;;;29.77;23.00;;;;;;;;;;4913518;28;83736;-60
2021/11/17 21:45:16;;;;;;;30.25;22.15;;;;;;;;;;4910698;28;83130;-63
2021/11/17 21:47:43;;;;;;;35.22;25.88;;;;;;;;;;4909849;28;84968;-61
2021/11/17 21:50:11;;;;;;;30.17;24.00;;;;;;;;;;4897296;28;83493;-61
2021/11/17 21:52:38;;;;;;;29.65;22.10;;;;;;;;;;4898262;28;83092;-59
2021/11/17 21:55:06;;;;;;;32.03;22.25;;;;;;;;;;4896907;28;85132;-59
2021/11/17 21:57:33;;;;;;;29.13;22.63;;;;;;;;;;4897823;28;85016;-62
2021/11/17 21:59:59;;;;;;;30.33;22.08;;;;;;;;;;4896209;28;83488;-59
2021/11/17 22:02:28;;;;;;;32.40;22.05;;;;;;;;;;4897406;28;84007;-60
2021/11/17 22:05:08;;;;;;;30.45;22.02;;;;;;;;;;4900205;28;84391;-62
2021/11/17 22:07:35;;;;;;;33.55;24.63;;;;;;;;;;4891719;28;85166;-62
2021/11/17 22:10:03;;;;;;;32.97;22.13;;;;;;;;;;4893625;28;84539;-61
2021/11/17 22:12:29;;;;;;;32.53;24.60;;;;;;;;;;4895626;28;84464;-63
2021/11/17 22:14:57;;;;;;;29.45;21.60;;;;;;;;;;4893356;28;85070;-62
2021/11/17 22:17:24;;;;;;;32.70;22.67;;;;;;;;;;4893986;28;84370;-63
2021/11/17 22:19:51;;;;;;;26.60;20.58;;;;;;;;;;4892213;28;84803;-63
2021/11/17 22:22:19;;;;;;;26.15;20.45;;;;;;;;;;4896376;28;85104;-61
2021/11/17 22:24:45;;;;;;;27.42;21.25;;;;;;;;;;4895095;28;83473;-61
2021/11/17 22:27:12;;;;;;;30.25;21.38;;;;;;;;;;4894674;28;83006;-65
2021/11/17 22:29:39;;;;;;;22.08;11.82;;;;;;;;;;4893775;28;84522;-42
2021/11/17 22:32:07;;;;;;;7.18;4.90;;;;;;;;;;4892715;28;83231;-41
2021/11/17 22:34:35;;;;;;;6.65;4.13;;;;;;;;;;4905459;28;85115;-41
2021/11/17 22:37:02;;;;;;;6.18;4.03;;;;;;;;;;4899928;28;81508;-43
2021/11/17 22:39:29;;;;;;;4.78;3.63;;;;;;;;;;4905749;28;81929;-41
2021/11/17 22:41:55;;;;;;;3.67;2.70;;;;;;;;;;4905143;28;82241;-42
2021/11/17 22:44:22;;;;;;;3.67;2.97;;;;;;;;;;4905938;28;80722;-40
2021/11/17 22:46:50;;;;;;;3.05;2.40;;;;;;;;;;4905722;28;80913;-41
2021/11/17 22:49:17;;;;;;;3.58;2.13;;;;;;;;;;4907844;28;80708;-42
2021/11/17 22:51:44;;;;;;;3.40;2.65;;;;;;;;;;4905959;28;81887;-41
2021/11/17 22:54:11;;;;;;;3.42;2.53;;;;;;;;;;4905108;28;82867;-40
2021/11/17 22:56:38;;;;;;;2.75;2.28;;;;;;;;;;4905694;28;82081;-36
2021/11/17 22:59:05;;;;;;;2.20;1.98;;;;;;;;;;4904945;28;81864;-42
2021/11/17 23:01:34;;;;;;;4.65;2.78;;;;;;;;;;4903475;28;82562;-41
2021/11/17 23:04:01;;;;;;;2.33;2.13;;;;;;;;;;4904499;28;82001;-40
2021/11/17 23:06:28;;;;;;;2.33;2.10;;;;;;;;;;4904023;28;81789;-37
2021/11/17 23:08:55;;;;;;;2.80;2.42;;;;;;;;;;4907184;28;82583;-39
2021/11/17 23:11:23;;;;;;;2.83;2.35;;;;;;;;;;4904730;28;81155;-41
2021/11/17 23:13:50;;;;;;;3.72;2.25;;;;;;;;;;4905370;28;82568;-37
2021/11/17 23:16:17;;;;;;;3.35;2.13;;;;;;;;;;4904825;28;81845;-41
2021/11/17 23:18:44;;;;;;;2.60;2.20;;;;;;;;;;4905719;28;80853;-39
2021/11/17 23:21:12;;;;;;;2.25;1.90;;;;;;;;;;4905951;28;82415;-42
2021/11/17 23:23:40;;;;;;;1.75;1.48;;;;;;;;;;4905310;28;80759;-40
2021/11/17 23:26:09;;;;;;;2.40;1.80;;;;;;;;;;4904863;28;81933;-38
2021/11/17 23:28:36;;;;;;;2.40;2.05;;;;;;;;;;4905513;28;82423;-41
2021/11/17 23:31:04;;;;;;;2.05;1.75;;;;;;;;;;4908137;28;80662;-41
2021/11/17 23:33:34;;;;;;;1.88;1.60;;;;;;;;;;4905557;28;82851;-41
2021/11/17 23:36:00;;;;;;;1.90;1.73;;;;;;;;;;4905436;28;81666;-42
2021/11/17 23:38:27;;;;;;;2.10;1.90;;;;;;;;;;4904044;28;81756;-41
2021/11/17 23:40:54;;;;;;;3.13;2.33;;;;;;;;;;4905355;28;82627;-42
2021/11/17 23:43:22;;;;;;;1.80;1.70;;;;;;;;;;4905033;28;81879;-41
2021/11/17 23:45:49;;;;;;;2.90;1.70;;;;;;;;;;4905005;28;81754;-41
2021/11/17 23:48:17;;;;;;;2.05;1.80;;;;;;;;;;4905274;28;82555;-41
2021/11/17 23:50:46;;;;;;;3.28;1.77;;;;;;;;;;4905388;28;80726;-42
2021/11/17 23:53:20;;;;;;;3.15;1.95;;;;;;;;;;4908051;28;82240;-41
2021/11/17 23:55:47;;;;;;;1.65;1.55;;;;;;;;;;4904250;28;81738;-42
2021/11/17 23:58:14;;;;;;;2.05;1.80;;;;;;;;;;4905707;28;81880;-41
